createdAt,value
2019-04-20T00:00:44.526Z,12.80
2019-04-20T00:03:11.701Z,15.10
2019-04-20T00:05:43.425Z,16.90
2019-04-20T00:08:19.621Z,19.33
2019-04-20T00:10:54.282Z,24.50
2019-04-20T00:13:25.504Z,23.53
2019-04-20T00:15:47.120Z,17.70
2019-04-20T00:18:16.986Z,15.47
2019-04-20T00:21:03.873Z,31.77
2019-04-20T00:23:45.365Z,15.10
2019-04-20T00:26:56.442Z,20.00
2019-04-20T00:29:18.743Z,15.07
2019-04-20T00:31:44.326Z,16.17
2019-04-20T00:34:08.016Z,16.07
2019-04-20T00:36:30.734Z,17.00
2019-04-20T00:39:03.777Z,21.43
2019-04-20T00:41:34.092Z,18.27
2019-04-20T00:44:06.839Z,22.07
2019-04-20T00:46:49.034Z,23.87
2019-04-20T00:49:20.779Z,20.90
2019-04-20T00:51:50.988Z,22.50
2019-04-20T00:54:07.373Z,22.13
2019-04-20T00:56:37.066Z,16.50
2019-04-20T00:59:20.746Z,18.03
2019-04-20T01:02:00.572Z,17.80
2019-04-20T01:04:27.192Z,16.53
2019-04-20T01:07:11.649Z,19.33
2019-04-20T01:09:47.830Z,23.30
2019-04-20T01:12:22.949Z,25.20
2019-04-20T01:14:55.233Z,21.03
2019-04-20T01:17:20.485Z,16.70
2019-04-20T01:19:52.789Z,18.17
2019-04-20T01:22:24.120Z,23.03
2019-04-20T01:24:53.374Z,15.47
2019-04-20T01:27:32.593Z,25.90
2019-04-20T01:30:06.992Z,22.43
2019-04-20T01:32:34.291Z,22.77
2019-04-20T01:35:14.016Z,20.57
2019-04-20T01:37:40.902Z,20.97
2019-04-20T01:40:01.116Z,21.83
2019-04-20T01:42:30.043Z,19.53
2019-04-20T01:45:00.310Z,21.30
2019-04-20T01:47:36.063Z,18.63
2019-04-20T01:50:08.516Z,20.10
2019-04-20T01:52:47.044Z,20.20
2019-04-20T01:55:38.710Z,30.03
2019-04-20T01:58:27.726Z,28.90
2019-04-20T02:00:55.895Z,19.20
2019-04-20T02:03:46.186Z,20.20
2019-04-20T02:06:16.764Z,32.30
2019-04-20T02:08:44.114Z,30.40
2019-04-20T02:11:21.309Z,39.17
2019-04-20T02:13:52.888Z,34.80
2019-04-20T02:16:25.850Z,23.93
2019-04-20T02:19:06.547Z,45.53
2019-04-20T02:21:33.959Z,25.00
2019-04-20T02:23:54.699Z,22.20
2019-04-20T02:26:20.023Z,20.17
2019-04-20T02:29:18.950Z,40.70
2019-04-20T02:32:06.666Z,25.27
2019-04-20T02:34:47.825Z,20.40
2019-04-20T02:39:57.967Z,21.53
2019-04-20T02:42:19.695Z,35.00
2019-04-20T02:44:51.766Z,40.70
2019-04-20T02:47:14.864Z,18.90
2019-04-20T02:49:40.408Z,19.40
2019-04-20T02:54:47.259Z,21.67
2019-04-20T02:57:18.678Z,26.53
2019-04-20T02:59:58.804Z,22.40
2019-04-20T03:02:05.059Z,21.60
2019-04-20T03:04:29.541Z,26.00
2019-04-20T03:07:04.814Z,28.23
2019-04-20T03:09:39.658Z,27.87
2019-04-20T03:12:16.999Z,28.20
2019-04-20T03:14:39.348Z,22.03
2019-04-20T03:17:18.267Z,21.90
2019-04-20T03:19:41.219Z,26.40
2019-04-20T03:22:24.640Z,21.73
2019-04-20T03:24:49.833Z,20.90
2019-04-20T03:27:18.355Z,26.00
2019-04-20T03:29:56.402Z,29.50
2019-04-20T03:33:14.587Z,23.87
2019-04-20T03:35:20.716Z,42.97
2019-04-20T03:37:48.694Z,23.70
2019-04-20T03:40:10.281Z,31.43
2019-04-20T03:42:28.907Z,30.33
2019-04-20T03:45:04.146Z,25.27
2019-04-20T03:47:39.323Z,40.80
2019-04-20T03:50:27.356Z,27.30
2019-04-20T03:52:57.991Z,24.73
2019-04-20T03:55:39.686Z,31.43
2019-04-20T03:58:18.641Z,25.70
2019-04-20T04:01:22.718Z,24.63
2019-04-20T04:04:12.143Z,26.80
2019-04-20T04:06:33.113Z,25.23
2019-04-20T04:09:07.247Z,19.10
2019-04-20T04:11:37.893Z,22.43
2019-04-20T04:13:56.671Z,32.03
2019-04-20T04:16:34.169Z,28.00
2019-04-20T04:19:07.515Z,26.43
2019-04-20T04:21:44.692Z,32.27
2019-04-20T04:24:12.870Z,28.20
2019-04-20T04:26:48.871Z,26.00
2019-04-20T04:29:27.177Z,22.73
2019-04-20T04:32:02.329Z,26.80
2019-04-20T04:34:22.967Z,29.60
2019-04-20T04:36:59.432Z,51.60
2019-04-20T04:39:32.225Z,24.47
2019-04-20T04:42:09.110Z,32.80
2019-04-20T04:44:25.561Z,30.50
2019-04-20T04:46:49.263Z,37.57
2019-04-20T04:49:20.691Z,31.27
2019-04-20T04:51:51.960Z,23.07
2019-04-20T04:54:26.753Z,27.60
2019-04-20T04:56:46.350Z,29.27
2019-04-20T04:59:17.134Z,34.20
2019-04-20T05:01:50.607Z,30.70
2019-04-20T05:04:40.317Z,25.13
2019-04-20T05:07:05.237Z,25.90
2019-04-20T05:09:22.649Z,32.20
2019-04-20T05:12:01.473Z,27.63
2019-04-20T05:14:38.761Z,37.53
2019-04-20T05:17:11.689Z,25.97
2019-04-20T05:19:51.180Z,24.77
2019-04-20T05:22:29.174Z,40.27
2019-04-20T05:24:58.703Z,29.10
2019-04-20T05:27:46.547Z,47.27
2019-04-20T05:29:57.058Z,31.90
2019-04-20T05:32:35.896Z,36.80
2019-04-20T05:35:21.711Z,41.07
2019-04-20T05:37:53.045Z,40.83
2019-04-20T05:40:25.067Z,29.30
2019-04-20T05:43:10.650Z,29.37
2019-04-20T05:45:38.836Z,31.63
2019-04-20T05:48:11.771Z,31.03
2019-04-20T05:50:46.954Z,22.33
2019-04-20T05:53:19.349Z,25.60
2019-04-20T05:55:48.862Z,37.63
2019-04-20T05:58:22.329Z,30.77
2019-04-20T06:00:55.480Z,26.70
2019-04-20T06:03:20.267Z,27.87
2019-04-20T06:05:59.393Z,32.93
2019-04-20T06:08:33.088Z,25.97
2019-04-20T06:10:56.399Z,37.33
2019-04-20T06:13:32.742Z,32.37
2019-04-20T06:16:13.850Z,29.77
2019-04-20T06:19:04.321Z,28.03
2019-04-20T06:24:10.368Z,30.40
2019-04-20T06:26:49.003Z,27.40
2019-04-20T06:29:10.069Z,28.93
2019-04-20T06:31:48.648Z,23.23
2019-04-20T06:34:30.584Z,42.43
2019-04-20T06:39:30.948Z,25.77
2019-04-20T06:42:14.712Z,25.10
2019-04-20T06:52:20.343Z,23.30
2019-04-20T06:55:03.380Z,34.13
2019-04-20T06:57:35.654Z,24.60
2019-04-20T07:00:14.147Z,26.10
2019-04-20T07:02:42.852Z,20.90
2019-04-20T07:05:13.045Z,20.23
2019-04-20T07:07:45.473Z,28.07
2019-04-20T07:10:19.405Z,25.47
2019-04-20T07:12:43.666Z,29.50
2019-04-20T07:15:09.747Z,16.67
2019-04-20T07:20:56.711Z,25.40
2019-04-20T07:25:58.558Z,19.43
2019-04-20T07:28:27.728Z,24.10
2019-04-20T07:30:56.886Z,20.93
2019-04-20T07:33:27.048Z,21.23
2019-04-20T07:35:50.740Z,17.37
2019-04-20T07:40:56.281Z,23.73
2019-04-20T07:43:28.372Z,25.83
2019-04-20T07:46:02.756Z,16.43
2019-04-20T07:48:27.774Z,21.57
2019-04-20T07:50:55.498Z,16.40
2019-04-20T07:53:30.539Z,14.57
2019-04-20T07:56:09.179Z,43.70
2019-04-20T07:58:25.087Z,15.27
2019-04-20T08:01:22.583Z,13.60
2019-04-20T08:03:55.685Z,16.47
2019-04-20T08:06:24.511Z,19.20
2019-04-20T08:09:02.797Z,16.93
2019-04-20T08:11:44.812Z,16.47
2019-04-20T08:14:13.326Z,17.37
2019-04-20T08:16:54.592Z,15.37
2019-04-20T08:19:14.747Z,24.93
2019-04-20T08:21:43.785Z,16.30
2019-04-20T08:24:15.939Z,19.20
2019-04-20T08:26:30.923Z,16.07
2019-04-20T08:29:29.053Z,32.77
2019-04-20T08:32:17.851Z,33.57
2019-04-20T08:34:55.970Z,14.37
2019-04-20T08:37:21.188Z,17.90
2019-04-20T08:42:22.530Z,20.10
2019-04-20T08:47:42.272Z,24.33
2019-04-20T08:50:19.858Z,15.00
2019-04-20T08:55:16.540Z,17.90
2019-04-20T08:57:29.329Z,19.87
2019-04-20T09:00:02.532Z,18.60
2019-04-20T09:02:30.485Z,21.57
2019-04-20T09:05:05.279Z,16.87
2019-04-20T09:07:35.086Z,20.63
2019-04-20T09:10:28.261Z,19.40
2019-04-20T09:12:50.352Z,18.97
2019-04-20T09:15:05.958Z,29.60
2019-04-20T09:17:54.100Z,11.80
2019-04-20T09:20:31.897Z,15.13
2019-04-20T09:23:18.626Z,27.10
2019-04-20T09:26:03.141Z,22.83
2019-04-20T09:28:36.318Z,12.47
2019-04-20T09:31:18.051Z,20.37
2019-04-20T09:34:04.285Z,14.10
2019-04-20T09:37:12.904Z,13.83
2019-04-20T09:39:39.318Z,17.47
2019-04-20T09:42:06.295Z,15.10
2019-04-20T09:44:40.953Z,14.83
2019-04-20T09:47:08.608Z,16.10
2019-04-20T09:49:49.197Z,13.50
2019-04-20T09:52:22.290Z,16.27
2019-04-20T09:54:55.161Z,15.20
2019-04-20T09:57:30.955Z,12.93
2019-04-20T09:59:57.492Z,16.23
2019-04-20T10:02:19.758Z,11.93
2019-04-20T10:04:44.162Z,14.30
2019-04-20T10:07:18.034Z,12.90
2019-04-20T10:09:46.662Z,10.33
2019-04-20T10:12:15.920Z,17.80
2019-04-20T10:14:46.756Z,13.80
2019-04-20T10:17:16.173Z,21.73
2019-04-20T10:19:46.584Z,11.73
2019-04-20T10:22:16.670Z,10.60
2019-04-20T10:24:49.202Z,13.77
2019-04-20T10:27:17.070Z,22.50
2019-04-20T10:29:46.433Z,20.00
2019-04-20T10:32:17.553Z,15.60
2019-04-20T10:34:46.660Z,16.13
2019-04-20T10:37:29.436Z,16.47
2019-04-20T10:39:58.660Z,14.60
2019-04-20T10:42:28.174Z,22.90
2019-04-20T10:44:59.447Z,12.60
2019-04-20T10:47:29.385Z,13.50
2019-04-20T10:49:58.998Z,10.67
2019-04-20T10:52:29.710Z,13.80
2019-04-20T10:55:00.548Z,16.07
2019-04-20T10:57:31.176Z,22.93
2019-04-20T11:00:01.781Z,12.80
2019-04-20T11:02:31.936Z,17.87
2019-04-20T11:05:02.589Z,15.40
2019-04-20T11:07:32.529Z,14.23
2019-04-20T11:10:13.389Z,13.77
2019-04-20T11:12:34.501Z,12.13
2019-04-20T11:15:03.918Z,11.10
2019-04-20T11:17:33.627Z,12.23
2019-04-20T11:20:03.371Z,14.73
2019-04-20T11:22:32.853Z,15.67
2019-04-20T11:25:02.254Z,13.73
2019-04-20T11:27:32.198Z,15.07
2019-04-20T11:30:02.612Z,21.20
2019-04-20T11:32:31.932Z,12.87
2019-04-20T11:35:11.097Z,12.90
2019-04-20T11:37:33.182Z,13.30
2019-04-20T11:40:03.255Z,25.20
2019-04-20T11:42:32.834Z,13.10
2019-04-20T11:45:02.754Z,18.57
2019-04-20T11:47:33.602Z,14.60
2019-04-20T11:50:03.752Z,12.87
2019-04-20T11:52:38.861Z,16.00
2019-04-20T11:55:04.602Z,18.17
2019-04-20T11:57:35.396Z,15.53
2019-04-20T12:00:05.452Z,13.93
2019-04-20T12:02:42.564Z,15.33
2019-04-20T12:05:21.273Z,14.40
2019-04-20T12:07:57.014Z,12.77
2019-04-20T12:10:27.978Z,13.40
2019-04-20T12:12:57.707Z,12.37
2019-04-20T12:15:26.928Z,11.53
2019-04-20T12:17:57.712Z,16.03
2019-04-20T12:20:27.454Z,13.73
2019-04-20T12:22:58.050Z,14.17
2019-04-20T12:25:31.585Z,15.87
2019-04-20T12:28:01.951Z,13.87
2019-04-20T12:30:30.845Z,13.63
2019-04-20T12:33:02.173Z,19.73
2019-04-20T12:35:32.012Z,16.10
2019-04-20T12:38:01.515Z,17.23
2019-04-20T12:40:32.278Z,18.17
2019-04-20T12:43:02.110Z,16.10
2019-04-20T12:45:33.561Z,14.87
2019-04-20T12:48:03.959Z,18.90
2019-04-20T12:50:33.255Z,14.20
2019-04-20T12:53:02.703Z,18.23
2019-04-20T12:55:32.561Z,14.53
2019-04-20T12:58:02.818Z,13.73
2019-04-20T13:00:49.827Z,13.73
2019-04-20T13:03:19.588Z,14.30
2019-04-20T13:05:50.085Z,12.87
2019-04-20T13:08:27.323Z,14.20
2019-04-20T13:11:04.578Z,11.97
2019-04-20T13:13:44.210Z,12.50
2019-04-20T13:16:20.536Z,12.77
2019-04-20T13:19:08.915Z,12.63
2019-04-20T13:21:39.081Z,11.10
2019-04-20T13:24:09.296Z,17.20
2019-04-20T13:26:39.051Z,14.67
2019-04-20T13:29:08.744Z,13.63
2019-04-20T13:31:38.267Z,11.90
2019-04-20T13:34:07.671Z,12.50
2019-04-20T13:36:38.114Z,13.03
2019-04-20T13:39:08.529Z,24.13
2019-04-20T13:41:38.106Z,14.70
2019-04-20T13:44:08.378Z,13.25
2019-04-20T13:46:38.832Z,15.03
2019-04-20T13:49:09.309Z,13.70
2019-04-20T13:51:39.144Z,12.82
2019-04-20T13:54:13.870Z,13.10
2019-04-20T13:56:39.792Z,13.80
2019-04-20T13:59:28.116Z,12.40
2019-04-20T14:02:22.797Z,14.65
2019-04-20T14:04:55.193Z,13.58
2019-04-20T14:07:25.520Z,15.18
2019-04-20T14:09:55.345Z,22.85
2019-04-20T14:12:30.679Z,15.70
2019-04-20T14:14:57.300Z,12.05
2019-04-20T14:17:26.829Z,13.45
2019-04-20T14:19:57.150Z,12.60
2019-04-20T14:22:27.194Z,12.70
2019-04-20T14:24:57.301Z,16.25
2019-04-20T14:27:26.825Z,13.65
2019-04-20T14:29:57.096Z,12.63
2019-04-20T14:32:27.080Z,10.68
2019-04-20T14:34:56.826Z,11.10
2019-04-20T14:37:26.774Z,11.85
2019-04-20T14:39:56.559Z,12.47
2019-04-20T14:42:35.556Z,11.68
2019-04-20T14:44:57.535Z,12.58
2019-04-20T14:47:27.922Z,10.48
2019-04-20T14:49:59.687Z,15.03
2019-04-20T14:52:29.355Z,13.15
2019-04-20T14:54:59.528Z,12.63
2019-04-20T14:57:29.828Z,12.37
2019-04-20T15:00:05.598Z,11.40
2019-04-20T15:02:36.306Z,11.03
2019-04-20T15:05:07.316Z,11.10
2019-04-20T15:07:36.673Z,11.80
2019-04-20T15:10:06.932Z,18.17
2019-04-20T15:12:45.537Z,18.40
2019-04-20T15:15:08.442Z,10.75
2019-04-20T15:17:51.503Z,19.42
2019-04-20T15:20:37.451Z,11.63
2019-04-20T15:23:17.493Z,27.58
2019-04-20T15:25:46.931Z,11.28
2019-04-20T15:28:16.523Z,16.45
2019-04-20T15:30:45.905Z,10.43
2019-04-20T15:33:15.160Z,13.00
2019-04-20T15:35:45.902Z,11.28
2019-04-20T15:38:15.514Z,10.85
2019-04-20T15:40:44.952Z,11.55
2019-04-20T15:43:17.989Z,10.25
2019-04-20T15:45:45.466Z,9.65
2019-04-20T15:48:16.209Z,10.08
2019-04-20T15:50:45.828Z,10.70
2019-04-20T15:53:15.619Z,11.53
2019-04-20T15:55:46.983Z,11.18
2019-04-20T15:58:16.475Z,10.88
2019-04-20T16:00:46.665Z,14.05
2019-04-20T16:03:33.067Z,11.48
2019-04-20T16:06:05.237Z,13.47
2019-04-20T16:08:37.247Z,10.80
2019-04-20T16:11:09.151Z,12.63
2019-04-20T16:13:44.042Z,17.77
2019-04-20T16:16:10.090Z,14.67
2019-04-20T16:18:41.066Z,11.00
2019-04-20T16:21:16.078Z,9.90
2019-04-20T16:24:04.620Z,9.90
2019-04-20T16:27:11.651Z,13.97
2019-04-20T16:29:41.855Z,10.17
2019-04-20T16:32:12.281Z,17.10
2019-04-20T16:34:42.584Z,48.07
2019-04-20T16:37:12.588Z,9.43
2019-04-20T16:39:42.877Z,12.70
2019-04-20T16:42:14.200Z,21.10
2019-04-20T16:44:43.452Z,12.77
2019-04-20T16:47:14.238Z,11.40
2019-04-20T16:49:43.767Z,15.20
2019-04-20T16:52:13.158Z,18.33
2019-04-20T16:54:43.762Z,14.87
2019-04-20T16:57:15.579Z,10.07
2019-04-20T16:59:48.272Z,9.17
2019-04-20T17:02:17.463Z,9.80
2019-04-20T17:04:47.483Z,15.53
2019-04-20T17:07:33.592Z,10.43
2019-04-20T17:10:04.121Z,8.67
2019-04-20T17:12:33.754Z,14.93
2019-04-20T17:15:03.576Z,8.93
2019-04-20T17:17:33.611Z,8.93
2019-04-20T17:20:03.936Z,8.70
2019-04-20T17:22:33.414Z,9.03
2019-04-20T17:25:03.959Z,9.40
2019-04-20T17:27:49.272Z,8.80
2019-04-20T17:30:52.919Z,11.07
2019-04-20T17:33:29.925Z,11.70
2019-04-20T17:36:08.501Z,9.67
2019-04-20T17:38:37.499Z,16.10
2019-04-20T17:41:18.167Z,10.73
2019-04-20T17:43:50.698Z,8.90
2019-04-20T17:46:12.146Z,12.77
2019-04-20T17:48:45.193Z,21.40
2019-04-20T17:51:28.316Z,25.77
2019-04-20T17:54:05.360Z,14.50
2019-04-20T17:56:40.715Z,10.67
2019-04-20T17:59:10.387Z,10.10
2019-04-20T18:02:07.881Z,8.40
2019-04-20T18:05:00.771Z,28.17
2019-04-20T18:07:26.960Z,10.23
2019-04-20T18:09:59.033Z,9.40
2019-04-20T18:12:10.455Z,8.50
2019-04-20T18:14:48.942Z,9.03
2019-04-20T18:17:40.349Z,8.27
2019-04-20T18:20:03.103Z,6.80
2019-04-20T18:22:34.088Z,11.93
2019-04-20T18:25:26.791Z,7.93
2019-04-20T18:27:53.629Z,10.00
2019-04-20T18:30:24.122Z,7.43
2019-04-20T18:32:41.162Z,8.63
2019-04-20T18:35:16.259Z,16.20
2019-04-20T18:37:55.620Z,26.67
2019-04-20T18:40:29.831Z,6.97
2019-04-20T18:42:57.190Z,5.80
2019-04-20T18:45:33.750Z,12.03
2019-04-20T18:48:14.750Z,5.80
2019-04-20T18:50:27.717Z,8.03
2019-04-20T18:52:53.962Z,5.73
2019-04-20T18:55:36.952Z,6.47
2019-04-20T18:57:55.133Z,7.90
2019-04-20T19:00:31.550Z,5.83
2019-04-20T19:03:01.364Z,6.43
2019-04-20T19:05:27.881Z,6.10
2019-04-20T19:08:02.839Z,18.30
2019-04-20T19:10:32.805Z,6.33
2019-04-20T19:13:07.996Z,15.57
2019-04-20T19:16:13.356Z,9.10
2019-04-20T19:19:04.080Z,6.33
2019-04-20T19:21:22.710Z,15.17
2019-04-20T19:24:00.289Z,6.60
2019-04-20T19:26:23.801Z,6.30
2019-04-20T19:28:57.785Z,6.67
2019-04-20T19:31:39.344Z,4.97
2019-04-20T19:34:16.814Z,5.60
2019-04-20T19:36:34.876Z,7.80
2019-04-20T19:39:15.142Z,7.03
2019-04-20T19:41:41.755Z,7.23
2019-04-20T19:44:15.181Z,10.30
2019-04-20T19:47:09.139Z,7.47
2019-04-20T19:49:18.366Z,11.37
2019-04-20T19:52:02.745Z,7.73
2019-04-20T19:54:23.857Z,12.83
2019-04-20T19:56:48.537Z,10.87
2019-04-20T19:59:17.042Z,10.00
2019-04-20T20:01:37.942Z,12.73
2019-04-20T20:04:09.851Z,5.80
2019-04-20T20:06:46.033Z,7.57
2019-04-20T20:09:12.862Z,8.40
2019-04-20T20:11:44.113Z,5.40
2019-04-20T20:14:13.445Z,7.30
2019-04-20T20:17:06.827Z,7.87
2019-04-20T20:19:29.536Z,6.63
2019-04-20T20:22:00.372Z,8.50
2019-04-20T20:24:17.664Z,7.10
2019-04-20T20:26:53.382Z,7.70
2019-04-20T20:29:26.213Z,6.83
2019-04-20T20:32:02.021Z,7.40
2019-04-20T20:34:28.690Z,8.17
2019-04-20T20:36:55.943Z,12.83
2019-04-20T20:39:27.594Z,29.53
2019-04-20T20:42:01.678Z,6.70
2019-04-20T20:44:36.061Z,9.47
2019-04-20T20:47:10.591Z,10.00
2019-04-20T20:49:48.628Z,8.50
2019-04-20T20:52:17.047Z,9.57
2019-04-20T20:54:41.237Z,11.90
2019-04-20T20:57:07.395Z,8.50
2019-04-20T20:59:42.957Z,10.23
2019-04-20T21:02:08.889Z,13.90
2019-04-20T21:04:33.894Z,10.83
2019-04-20T21:07:04.656Z,9.23
2019-04-20T21:09:35.395Z,8.87
2019-04-20T21:12:10.797Z,9.63
2019-04-20T21:14:40.194Z,16.40
2019-04-20T21:17:15.214Z,14.00
2019-04-20T21:19:53.841Z,10.93
2019-04-20T21:22:18.045Z,15.83
2019-04-20T21:24:42.966Z,10.60
2019-04-20T21:27:17.042Z,8.37
2019-04-20T21:29:50.518Z,10.07
2019-04-20T21:32:18.050Z,11.30
2019-04-20T21:34:53.562Z,9.67
2019-04-20T21:37:20.042Z,10.27
2019-04-20T21:39:54.152Z,10.07
2019-04-20T21:42:22.869Z,25.13
2019-04-20T21:44:53.703Z,16.53
2019-04-20T21:47:28.146Z,26.50
2019-04-20T21:50:12.642Z,18.33
2019-04-20T21:52:32.575Z,13.20
2019-04-20T21:54:56.207Z,13.53
2019-04-20T21:57:26.224Z,11.77
2019-04-20T22:00:02.590Z,14.27
2019-04-20T22:02:33.845Z,16.73
2019-04-20T22:04:58.548Z,20.37
2019-04-20T22:07:28.293Z,22.17
2019-04-20T22:09:58.524Z,19.30
2019-04-20T22:12:37.575Z,16.63
2019-04-20T22:15:07.472Z,13.30
2019-04-20T22:17:33.085Z,31.03
2019-04-20T22:20:12.136Z,13.73
2019-04-20T22:22:50.812Z,12.97
2019-04-20T22:25:23.433Z,12.43
2019-04-20T22:27:37.504Z,12.23
2019-04-20T22:30:08.213Z,16.30
2019-04-20T22:32:45.015Z,30.43
2019-04-20T22:35:13.970Z,22.20
2019-04-20T22:37:47.790Z,19.27
2019-04-20T22:40:24.350Z,18.53
2019-04-20T22:42:54.308Z,19.20
2019-04-20T22:45:21.208Z,22.73
2019-04-20T22:47:52.977Z,29.43
2019-04-20T22:50:33.333Z,15.77
2019-04-20T22:53:06.626Z,18.07
2019-04-20T22:55:47.384Z,17.57
2019-04-20T22:58:03.613Z,20.47
2019-04-20T23:00:34.760Z,22.07
2019-04-20T23:02:58.710Z,25.13
2019-04-20T23:05:28.853Z,20.40
2019-04-20T23:07:58.943Z,32.20
2019-04-20T23:10:35.808Z,20.03
2019-04-20T23:12:59.711Z,22.40
2019-04-20T23:15:30.132Z,36.03
2019-04-20T23:18:00.088Z,17.53
2019-04-20T23:20:32.587Z,19.97
2019-04-20T23:23:00.914Z,22.37
2019-04-20T23:25:31.276Z,18.40
2019-04-20T23:28:09.456Z,18.80
2019-04-20T23:30:37.354Z,23.80
2019-04-20T23:33:02.558Z,19.30
2019-04-20T23:35:33.372Z,19.47
2019-04-20T23:38:10.159Z,28.07
2019-04-20T23:40:34.035Z,33.20
2019-04-20T23:43:17.779Z,29.17
2019-04-20T23:46:09.259Z,34.60
2019-04-20T23:48:42.977Z,32.70
2019-04-20T23:51:36.971Z,23.27
2019-04-20T23:53:53.941Z,30.33
2019-04-20T23:56:16.933Z,23.97
2019-04-20T23:58:49.593Z,20.83
